createdAt,value
2022-08-07T00:01:43.669Z,5.00
2022-08-07T00:04:15.488Z,5.70
2022-08-07T00:06:51.662Z,5.07
2022-08-07T00:09:21.170Z,3.93
2022-08-07T00:11:54.447Z,4.83
2022-08-07T00:14:25.309Z,4.13
2022-08-07T00:16:53.524Z,6.57
2022-08-07T00:19:25.940Z,5.83
2022-08-07T00:21:56.859Z,4.83
2022-08-07T00:24:31.689Z,5.97
2022-08-07T00:27:07.478Z,4.23
2022-08-07T00:29:37.311Z,4.93
2022-08-07T00:32:05.906Z,4.80
2022-08-07T00:34:35.653Z,3.70
2022-08-07T00:37:05.041Z,3.90
2022-08-07T00:39:33.054Z,4.30
2022-08-07T00:42:05.289Z,3.90
2022-08-07T00:44:33.564Z,4.33
2022-08-07T00:47:01.650Z,4.20
2022-08-07T00:50:20.352Z,4.00
2022-08-07T00:52:19.837Z,4.97
2022-08-07T00:54:53.371Z,4.87
2022-08-07T00:57:23.546Z,4.20
2022-08-07T00:59:53.587Z,4.07
2022-08-07T01:02:29.122Z,5.20
2022-08-07T01:04:58.439Z,5.13
2022-08-07T01:07:27.652Z,5.43
2022-08-07T01:10:06.398Z,5.40
2022-08-07T01:12:39.707Z,5.87
2022-08-07T01:15:21.304Z,5.93
2022-08-07T01:17:49.019Z,6.67
2022-08-07T01:20:17.457Z,5.60
2022-08-07T01:23:00.540Z,7.03
2022-08-07T01:25:53.722Z,5.70
2022-08-07T01:28:22.199Z,5.60
2022-08-07T01:30:51.384Z,6.27
2022-08-07T01:33:19.826Z,5.83
2022-08-07T01:35:53.487Z,5.43
2022-08-07T01:38:24.913Z,5.83
2022-08-07T01:40:53.964Z,5.70
2022-08-07T01:43:21.672Z,4.90
2022-08-07T01:45:54.615Z,4.40
2022-08-07T01:48:30.256Z,4.83
2022-08-07T01:50:59.744Z,4.77
2022-08-07T01:54:12.373Z,4.90
2022-08-07T01:56:38.722Z,5.07
2022-08-07T01:59:06.866Z,5.87
2022-08-07T02:01:59.942Z,5.47
2022-08-07T02:04:28.807Z,5.13
2022-08-07T02:06:58.636Z,4.73
2022-08-07T02:09:43.592Z,5.20
2022-08-07T02:12:19.364Z,4.13
2022-08-07T02:14:57.455Z,4.80
2022-08-07T02:17:31.553Z,4.77
2022-08-07T02:20:06.899Z,4.20
2022-08-07T02:22:38.422Z,5.33
2022-08-07T02:25:13.721Z,4.60
2022-08-07T02:27:44.955Z,4.33
2022-08-07T02:30:20.028Z,4.33
2022-08-07T02:33:04.032Z,4.30
2022-08-07T02:36:30.673Z,3.60
2022-08-07T02:38:28.181Z,3.80
2022-08-07T02:41:00.855Z,5.03
2022-08-07T02:43:31.631Z,3.93
2022-08-07T02:46:02.213Z,4.70
2022-08-07T02:48:30.516Z,4.27
2022-08-07T02:50:58.587Z,3.77
2022-08-07T02:53:27.826Z,4.77
2022-08-07T02:56:03.267Z,3.90
2022-08-07T02:58:33.898Z,4.10
2022-08-07T03:01:01.931Z,4.17
2022-08-07T03:03:49.447Z,4.60
2022-08-07T03:06:25.959Z,4.10
2022-08-07T03:09:01.173Z,4.80
2022-08-07T03:11:28.893Z,4.00
2022-08-07T03:14:02.083Z,4.53
2022-08-07T03:16:30.496Z,5.20
2022-08-07T03:18:58.337Z,6.23
2022-08-07T03:21:27.527Z,5.80
2022-08-07T03:24:18.943Z,6.13
2022-08-07T03:26:58.574Z,4.73
2022-08-07T03:29:28.906Z,5.70
2022-08-07T03:31:56.757Z,5.17
2022-08-07T03:34:27.404Z,6.30
2022-08-07T03:36:55.347Z,5.27
2022-08-07T03:39:46.416Z,5.40
2022-08-07T03:42:12.953Z,8.27
2022-08-07T03:44:42.086Z,9.27
2022-08-07T03:47:14.128Z,10.47
2022-08-07T03:49:42.506Z,7.13
2022-08-07T03:52:22.795Z,7.80
2022-08-07T03:54:58.950Z,9.70
2022-08-07T03:58:34.862Z,9.40
2022-08-07T04:00:29.336Z,4.67
2022-08-07T04:03:03.756Z,5.40
2022-08-07T04:05:41.099Z,5.97
2022-08-07T04:08:11.154Z,4.80
2022-08-07T04:10:39.030Z,5.43
2022-08-07T04:13:07.703Z,5.30
2022-08-07T04:15:45.488Z,5.50
2022-08-07T04:18:56.739Z,5.83
2022-08-07T04:21:01.952Z,6.20
2022-08-07T04:23:43.432Z,5.43
2022-08-07T04:26:21.907Z,5.40
2022-08-07T04:28:49.826Z,5.50
2022-08-07T04:31:19.994Z,4.90
2022-08-07T04:33:56.478Z,4.00
2022-08-07T04:36:26.166Z,4.40
2022-08-07T04:38:54.191Z,4.63
2022-08-07T04:41:21.914Z,4.43
2022-08-07T04:44:12.241Z,4.00
2022-08-07T04:46:59.717Z,4.13
2022-08-07T04:49:37.515Z,4.23
2022-08-07T04:52:07.668Z,4.10
2022-08-07T04:54:36.833Z,4.20
2022-08-07T04:58:13.072Z,4.37
2022-08-07T05:00:09.838Z,2.97
2022-08-07T05:02:45.891Z,4.83
2022-08-07T05:05:53.606Z,5.70
2022-08-07T05:08:13.820Z,4.60
2022-08-07T05:10:42.984Z,4.67
2022-08-07T05:14:53.824Z,4.47
2022-08-07T05:15:58.992Z,4.67
2022-08-07T05:18:29.588Z,4.53
2022-08-07T05:20:58.286Z,3.90
2022-08-07T05:23:29.858Z,4.13
2022-08-07T05:26:13.201Z,3.30
2022-08-07T05:28:48.643Z,3.83
2022-08-07T05:31:17.992Z,3.37
2022-08-07T05:34:01.171Z,3.27
2022-08-07T05:36:35.793Z,3.60
2022-08-07T05:39:08.959Z,3.53
2022-08-07T05:42:01.751Z,3.80
2022-08-07T05:44:31.610Z,2.83
2022-08-07T05:47:01.199Z,3.43
2022-08-07T05:49:40.552Z,3.63
2022-08-07T05:52:11.638Z,3.58
2022-08-07T05:54:53.173Z,3.25
2022-08-07T05:57:23.383Z,3.45
2022-08-07T05:59:57.476Z,3.30
2022-08-07T06:02:28.753Z,3.03
2022-08-07T06:04:58.848Z,3.40
2022-08-07T06:08:13.921Z,3.30
2022-08-07T06:10:15.484Z,3.63
2022-08-07T06:12:43.350Z,3.67
2022-08-07T06:15:16.094Z,3.33
2022-08-07T06:17:53.706Z,3.58
2022-08-07T06:20:25.679Z,3.50
2022-08-07T06:23:45.781Z,3.58
2022-08-07T06:25:59.775Z,3.45
2022-08-07T06:28:28.578Z,3.30
2022-08-07T06:30:56.519Z,3.45
2022-08-07T06:33:26.187Z,3.80
2022-08-07T06:36:06.562Z,3.22
2022-08-07T06:38:58.428Z,3.75
2022-08-07T06:41:47.636Z,3.40
2022-08-07T06:44:16.636Z,3.20
2022-08-07T06:46:44.377Z,3.20
2022-08-07T06:49:21.579Z,3.88
2022-08-07T06:51:50.673Z,3.60
2022-08-07T06:55:33.270Z,3.45
2022-08-07T06:57:06.232Z,2.97
2022-08-07T07:00:17.516Z,2.92
2022-08-07T07:02:48.368Z,2.95
2022-08-07T07:06:03.017Z,3.47
2022-08-07T07:08:06.740Z,3.97
2022-08-07T07:10:35.183Z,3.28
2022-08-07T07:13:03.552Z,3.38
2022-08-07T07:15:36.108Z,3.03
2022-08-07T07:18:08.690Z,3.67
2022-08-07T07:20:37.261Z,4.40
2022-08-07T07:24:10.845Z,3.50
2022-08-07T07:26:32.564Z,3.65
2022-08-07T07:29:23.611Z,4.07
2022-08-07T07:31:39.954Z,4.10
2022-08-07T07:34:13.357Z,4.40
2022-08-07T07:36:43.264Z,3.55
2022-08-07T07:39:17.288Z,3.92
2022-08-07T07:42:01.835Z,3.75
2022-08-07T07:44:34.156Z,3.42
2022-08-07T07:47:14.247Z,4.03
2022-08-07T07:50:34.295Z,4.15
2022-08-07T07:52:38.308Z,2.47
2022-08-07T07:55:10.934Z,3.20
2022-08-07T07:57:51.882Z,3.08
2022-08-07T08:00:29.401Z,3.72
2022-08-07T08:03:01.012Z,3.70
2022-08-07T08:05:50.787Z,3.30
2022-08-07T08:08:35.417Z,3.40
2022-08-07T08:11:06.044Z,3.88
2022-08-07T08:13:54.704Z,3.58
2022-08-07T08:16:25.779Z,3.33
2022-08-07T08:18:57.252Z,2.88
2022-08-07T08:21:56.942Z,4.20
2022-08-07T08:24:47.541Z,3.55
2022-08-07T08:27:24.986Z,2.55
2022-08-07T08:30:03.868Z,3.42
2022-08-07T08:32:38.139Z,3.17
2022-08-07T08:35:07.607Z,3.20
2022-08-07T08:38:00.993Z,2.63
2022-08-07T08:40:28.625Z,3.15
2022-08-07T08:42:59.189Z,3.47
2022-08-07T08:45:42.044Z,3.15
2022-08-07T08:48:19.832Z,3.13
2022-08-07T08:50:48.826Z,4.10
2022-08-07T08:53:20.549Z,3.28
2022-08-07T08:55:54.276Z,2.85
2022-08-07T08:58:31.203Z,2.90
2022-08-07T09:01:01.103Z,3.35
2022-08-07T09:03:47.337Z,3.20
2022-08-07T09:06:19.288Z,3.55
2022-08-07T09:08:48.293Z,3.70
2022-08-07T09:11:24.500Z,3.13
2022-08-07T09:14:10.678Z,3.92
2022-08-07T09:16:43.855Z,3.80
2022-08-07T09:19:50.768Z,4.38
2022-08-07T09:24:27.193Z,4.13
2022-08-07T09:25:00.857Z,2.85
2022-08-07T09:27:38.410Z,3.17
2022-08-07T09:30:25.573Z,3.70
2022-08-07T09:33:05.278Z,4.20
2022-08-07T09:36:00.911Z,4.77
2022-08-07T09:38:27.006Z,4.07
2022-08-07T09:40:58.914Z,4.30
2022-08-07T09:43:40.038Z,4.60
2022-08-07T09:47:51.687Z,4.80
2022-08-07T09:50:02.500Z,4.27
2022-08-07T09:52:16.638Z,4.32
2022-08-07T09:54:45.606Z,4.38
2022-08-07T09:57:24.966Z,4.53
2022-08-07T10:00:02.082Z,3.50
2022-08-07T10:02:39.809Z,4.00
2022-08-07T10:05:59.601Z,4.30
2022-08-07T10:08:46.481Z,3.70
2022-08-07T10:12:00.944Z,3.67
2022-08-07T10:14:11.192Z,4.40
2022-08-07T10:17:23.496Z,4.13
2022-08-07T10:19:58.804Z,4.10
2022-08-07T10:22:33.857Z,4.18
2022-08-07T10:25:22.611Z,4.28
2022-08-07T10:27:55.987Z,4.32
2022-08-07T10:30:26.412Z,5.05
2022-08-07T10:33:05.315Z,3.85
2022-08-07T10:35:56.744Z,3.92
2022-08-07T10:38:48.458Z,3.60
2022-08-07T10:41:46.633Z,3.67
2022-08-07T10:44:09.648Z,4.70
2022-08-07T10:46:41.083Z,2.97
2022-08-07T10:49:14.324Z,3.90
2022-08-07T10:52:02.266Z,2.90
2022-08-07T10:54:36.820Z,3.55
2022-08-07T10:57:08.403Z,3.95
2022-08-07T10:59:45.359Z,3.45
2022-08-07T11:02:33.611Z,2.95
2022-08-07T11:05:10.528Z,2.58
2022-08-07T11:07:58.879Z,3.83
2022-08-07T11:10:30.131Z,2.50
2022-08-07T11:13:01.639Z,2.78
2022-08-07T11:15:31.957Z,3.00
2022-08-07T11:18:03.767Z,3.03
2022-08-07T11:20:35.596Z,2.92
2022-08-07T11:23:09.266Z,2.90
2022-08-07T11:25:42.560Z,3.42
2022-08-07T11:28:17.653Z,2.67
2022-08-07T11:30:47.802Z,2.63
2022-08-07T11:33:59.082Z,2.08
2022-08-07T11:36:10.732Z,2.63
2022-08-07T11:38:41.342Z,2.08
2022-08-07T11:41:31.098Z,2.65
2022-08-07T11:44:11.967Z,2.53
2022-08-07T11:46:45.221Z,2.25
2022-08-07T11:49:50.428Z,1.98
2022-08-07T11:52:19.018Z,2.47
2022-08-07T11:55:02.530Z,2.30
2022-08-07T11:57:59.817Z,2.17
2022-08-07T12:00:30.859Z,2.17
2022-08-07T12:03:03.921Z,1.80
2022-08-07T12:05:41.713Z,2.20
2022-08-07T12:08:25.903Z,2.00
2022-08-07T12:11:20.732Z,2.28
2022-08-07T12:13:51.519Z,2.08
2022-08-07T12:16:30.276Z,2.38
2022-08-07T12:18:59.285Z,2.45
2022-08-07T12:22:36.250Z,2.15
2022-08-07T12:24:37.691Z,2.92
2022-08-07T12:27:13.293Z,2.50
2022-08-07T12:29:47.524Z,2.53
2022-08-07T12:32:20.896Z,3.50
2022-08-07T12:34:49.539Z,2.50
2022-08-07T12:37:23.465Z,2.53
2022-08-07T12:39:51.924Z,2.60
2022-08-07T12:42:27.504Z,1.75
2022-08-07T12:44:56.933Z,2.08
2022-08-07T12:47:26.772Z,2.28
2022-08-07T12:50:04.993Z,2.83
2022-08-07T12:52:52.368Z,2.08
2022-08-07T12:55:40.497Z,1.92
2022-08-07T12:58:11.178Z,1.88
2022-08-07T13:00:50.253Z,2.55
2022-08-07T13:04:02.453Z,2.45
2022-08-07T13:06:21.847Z,2.33
2022-08-07T13:08:57.410Z,2.17
2022-08-07T13:11:31.325Z,2.25
2022-08-07T13:14:23.259Z,2.85
2022-08-07T13:17:02.526Z,2.47
2022-08-07T13:19:35.194Z,2.10
2022-08-07T13:22:27.688Z,2.80
2022-08-07T13:25:00.181Z,2.10
2022-08-07T13:28:06.287Z,2.45
2022-08-07T13:30:19.462Z,2.97
2022-08-07T13:33:06.786Z,2.08
2022-08-07T13:36:01.337Z,4.43
2022-08-07T13:38:42.027Z,58.90
2022-08-07T13:41:13.195Z,38.75
2022-08-07T13:43:42.759Z,13.82
2022-08-07T13:46:25.588Z,4.57
2022-08-07T13:48:59.453Z,2.40
2022-08-07T13:52:04.976Z,3.88
2022-08-07T13:54:16.496Z,2.25
2022-08-07T13:56:55.676Z,4.05
2022-08-07T13:59:25.601Z,3.97
2022-08-07T14:02:04.535Z,5.72
2022-08-07T14:04:35.678Z,5.63
2022-08-07T14:07:09.740Z,3.50
2022-08-07T14:10:02.249Z,3.03
2022-08-07T14:12:32.140Z,3.57
2022-08-07T14:15:04.702Z,3.70
2022-08-07T14:18:23.662Z,3.47
2022-08-07T14:20:40.018Z,4.10
2022-08-07T14:23:12.894Z,3.27
2022-08-07T14:25:48.001Z,2.93
2022-08-07T14:28:16.075Z,3.50
2022-08-07T14:30:46.589Z,2.53
2022-08-07T14:33:23.299Z,3.00
2022-08-07T14:35:51.284Z,2.87
2022-08-07T14:38:30.792Z,2.63
2022-08-07T14:41:03.839Z,4.70
2022-08-07T14:43:55.665Z,2.17
2022-08-07T14:46:30.616Z,3.00
2022-08-07T14:49:56.185Z,2.90
2022-08-07T14:54:42.258Z,2.43
2022-08-07T14:57:14.953Z,2.65
2022-08-07T15:00:05.322Z,2.50
2022-08-07T15:05:23.465Z,3.17
2022-08-07T15:07:52.443Z,4.80
2022-08-07T15:10:26.113Z,24.00
2022-08-07T15:12:57.981Z,31.57
2022-08-07T15:15:27.296Z,15.23
2022-08-07T15:18:02.507Z,42.83
2022-08-07T15:20:55.164Z,34.33
2022-08-07T15:23:22.703Z,11.17
2022-08-07T15:26:10.389Z,1.80
2022-08-07T15:32:00.591Z,2.27
2022-08-07T15:34:26.092Z,1.33
2022-08-07T15:37:02.857Z,1.90
2022-08-07T15:39:56.853Z,1.77
2022-08-07T15:48:25.825Z,1.40
2022-08-07T15:51:01.993Z,2.17
2022-08-07T15:53:42.209Z,1.87
2022-08-07T15:56:21.236Z,1.33
2022-08-07T15:58:53.527Z,1.30
2022-08-07T16:01:23.106Z,1.80
2022-08-07T16:04:08.519Z,1.50
2022-08-07T16:06:44.054Z,1.40
2022-08-07T16:09:22.387Z,1.60
2022-08-07T16:11:56.819Z,1.23
2022-08-07T16:14:31.038Z,2.10
2022-08-07T16:17:15.905Z,1.73
2022-08-07T16:19:59.587Z,1.70
2022-08-07T16:22:54.434Z,1.90
2022-08-07T16:25:53.946Z,2.03
2022-08-07T16:29:18.832Z,1.87
2022-08-07T16:31:57.983Z,1.70
2022-08-07T16:34:23.522Z,1.50
2022-08-07T16:37:02.912Z,1.90
2022-08-07T16:39:55.884Z,1.30
2022-08-07T16:42:31.074Z,1.97
2022-08-07T16:46:40.521Z,1.80
2022-08-07T16:48:30.078Z,1.63
2022-08-07T16:51:20.938Z,1.80
2022-08-07T16:54:16.724Z,1.63
2022-08-07T16:57:03.843Z,2.03
2022-08-07T16:59:46.982Z,1.73
2022-08-07T17:02:53.662Z,2.13
2022-08-07T17:06:19.380Z,1.97
2022-08-07T17:08:20.318Z,1.73
2022-08-07T17:10:54.867Z,1.93
2022-08-07T17:13:41.428Z,2.03
2022-08-07T17:16:25.001Z,1.70
2022-08-07T17:18:58.650Z,1.40
2022-08-07T17:21:50.805Z,1.93
2022-08-07T17:24:23.795Z,1.83
2022-08-07T17:26:56.125Z,2.17
2022-08-07T17:30:14.988Z,1.90
2022-08-07T17:32:30.713Z,1.73
2022-08-07T17:35:51.817Z,2.20
2022-08-07T17:38:06.419Z,2.47
2022-08-07T17:40:40.206Z,2.47
2022-08-07T17:43:17.973Z,2.03
2022-08-07T17:45:54.204Z,1.90
2022-08-07T17:48:30.748Z,1.97
2022-08-07T17:51:01.547Z,1.87
2022-08-07T17:54:01.803Z,2.47
2022-08-07T17:56:28.576Z,1.70
2022-08-07T17:58:59.459Z,2.33
2022-08-07T18:01:34.782Z,2.40
2022-08-07T18:04:16.274Z,2.87
2022-08-07T18:06:47.209Z,2.33
2022-08-07T18:10:05.237Z,2.30
2022-08-07T18:12:28.032Z,3.10
2022-08-07T18:15:00.819Z,3.17
2022-08-07T18:18:46.956Z,3.23
2022-08-07T18:21:03.777Z,2.50
2022-08-07T18:23:41.883Z,2.40
2022-08-07T18:26:05.404Z,2.97
2022-08-07T18:28:58.683Z,3.07
2022-08-07T18:31:33.909Z,2.20
2022-08-07T18:34:28.615Z,3.70
2022-08-07T18:37:09.232Z,2.90
2022-08-07T18:40:07.330Z,3.27
2022-08-07T18:42:32.602Z,3.70
2022-08-07T18:45:44.364Z,3.40
2022-08-07T18:48:01.547Z,3.53
2022-08-07T18:50:40.807Z,4.03
2022-08-07T18:53:17.697Z,3.37
2022-08-07T18:55:56.135Z,3.53
2022-08-07T18:58:29.696Z,2.60
2022-08-07T19:01:06.895Z,3.07
2022-08-07T19:03:38.744Z,3.57
2022-08-07T19:06:08.496Z,3.20
2022-08-07T19:08:46.388Z,3.10
2022-08-07T19:11:36.711Z,2.93
2022-08-07T19:14:11.698Z,3.10
2022-08-07T19:17:07.596Z,3.13
2022-08-07T19:19:37.500Z,3.53
2022-08-07T19:22:11.188Z,3.03
2022-08-07T19:24:43.394Z,2.93
2022-08-07T19:29:02.892Z,3.67
2022-08-07T19:31:01.925Z,2.77
2022-08-07T19:32:59.542Z,3.10
2022-08-07T19:35:28.301Z,3.60
2022-08-07T19:38:01.708Z,3.33
2022-08-07T19:40:34.606Z,2.80
2022-08-07T19:43:02.792Z,3.10
2022-08-07T19:46:05.769Z,3.50
2022-08-07T19:48:24.118Z,3.03
2022-08-07T19:50:53.438Z,3.60
2022-08-07T19:54:33.903Z,3.83
2022-08-07T19:58:02.495Z,3.77
2022-08-07T19:58:58.940Z,3.33
2022-08-07T20:01:52.966Z,3.50
2022-08-07T20:04:31.649Z,2.97
2022-08-07T20:07:04.028Z,3.83
2022-08-07T20:10:37.886Z,3.37
2022-08-07T20:12:34.579Z,3.63
2022-08-07T20:15:03.724Z,3.40
2022-08-07T20:17:32.093Z,4.20
2022-08-07T20:20:04.687Z,3.33
2022-08-07T20:22:34.730Z,4.13
2022-08-07T20:25:06.320Z,4.50
2022-08-07T20:27:47.778Z,3.90
2022-08-07T20:30:22.518Z,3.10
2022-08-07T20:32:50.434Z,3.50
2022-08-07T20:35:25.278Z,3.33
2022-08-07T20:37:59.195Z,4.00
2022-08-07T20:40:32.062Z,4.43
2022-08-07T20:43:03.490Z,4.17
2022-08-07T20:46:25.593Z,4.40
2022-08-07T20:48:29.907Z,3.27
2022-08-07T20:50:58.371Z,3.87
2022-08-07T20:54:02.048Z,5.40
2022-08-07T20:56:13.797Z,4.27
2022-08-07T20:58:46.547Z,4.20
2022-08-07T21:01:19.603Z,4.87
2022-08-07T21:04:18.851Z,3.97
2022-08-07T21:06:37.871Z,5.00
2022-08-07T21:09:14.107Z,5.03
2022-08-07T21:11:51.409Z,4.60
2022-08-07T21:14:32.905Z,4.70
2022-08-07T21:18:00.677Z,3.50
2022-08-07T21:20:04.648Z,4.17
2022-08-07T21:22:33.390Z,5.10
2022-08-07T21:25:12.220Z,5.43
2022-08-07T21:27:47.017Z,5.63
2022-08-07T21:30:17.885Z,6.07
2022-08-07T21:32:49.372Z,6.03
2022-08-07T21:36:00.197Z,5.53
2022-08-07T21:38:10.083Z,6.50
2022-08-07T21:40:42.369Z,5.73
2022-08-07T21:43:10.930Z,4.80
2022-08-07T21:46:10.364Z,5.30
2022-08-07T21:48:34.438Z,5.63
2022-08-07T21:51:06.225Z,5.97
2022-08-07T21:53:37.069Z,6.53
2022-08-07T21:56:39.716Z,5.27
2022-08-07T21:59:09.182Z,5.50
2022-08-07T22:02:07.486Z,5.90
2022-08-07T22:04:27.670Z,4.97
2022-08-07T22:06:58.190Z,5.23
2022-08-07T22:09:26.467Z,5.50
2022-08-07T22:12:06.706Z,5.10
2022-08-07T22:14:36.871Z,5.33
2022-08-07T22:17:06.128Z,3.93
2022-08-07T22:19:36.996Z,4.30
2022-08-07T22:22:20.969Z,4.20
2022-08-07T22:24:56.661Z,4.33
2022-08-07T22:28:03.240Z,4.07
2022-08-07T22:30:14.362Z,4.07
2022-08-07T22:32:46.890Z,4.73
2022-08-07T22:35:18.395Z,3.10
2022-08-07T22:38:03.553Z,3.80
2022-08-07T22:40:34.516Z,3.60
2022-08-07T22:43:03.969Z,3.47
2022-08-07T22:46:21.436Z,3.63
2022-08-07T22:48:56.275Z,4.53
2022-08-07T22:51:21.785Z,3.50
2022-08-07T22:54:07.355Z,3.23
2022-08-07T22:56:39.028Z,4.43
2022-08-07T22:59:32.659Z,4.10
2022-08-07T23:02:02.906Z,3.40
2022-08-07T23:04:57.932Z,3.60
2022-08-07T23:07:41.805Z,4.60
2022-08-07T23:10:38.182Z,4.47
2022-08-07T23:13:06.901Z,3.50
2022-08-07T23:16:05.856Z,4.30
2022-08-07T23:18:32.206Z,4.73
2022-08-07T23:21:06.302Z,4.90
2022-08-07T23:24:04.084Z,4.80
2022-08-07T23:26:26.215Z,5.43
2022-08-07T23:29:16.549Z,5.20
2022-08-07T23:34:21.310Z,5.70
2022-08-07T23:34:52.222Z,6.77
2022-08-07T23:38:00.726Z,6.70
2022-08-07T23:40:34.574Z,6.73
2022-08-07T23:43:16.869Z,6.23
2022-08-07T23:46:03.036Z,6.73
2022-08-07T23:48:37.124Z,5.67
2022-08-07T23:52:57.882Z,5.77
2022-08-07T23:53:55.506Z,6.87
2022-08-07T23:56:26.505Z,6.73
2022-08-07T23:58:55.789Z,7.17
